Time;durP1;ratioP1;P1;durP2;ratioP2;P2;SDS_P1;SDS_P2;PMS_P1;PMS_P2;Temp;Humidity;BMP_temperature;BMP_pressure;BME280_temperature;BME280_humidity;BME280_pressure;Samples;Min_cycle;Max_cycle;Signal;HPM_P1;HPM_P2
2023/05/19 00:00:27;;;;;;;;;;;11.10;99.90;;;;;;5106790;28;19920;-67
2023/05/19 00:02:54;;;;;;;;;;;11.10;99.90;;;;;;5107125;28;20152;-68
2023/05/19 00:05:21;;;;;;;;;;;11.10;99.90;;;;;;5106812;28;19942;-66
2023/05/19 00:07:51;;;;;;;;;;;11.10;99.90;;;;;;5106271;28;20081;-66
2023/05/19 00:10:18;;;;;;;;;;;11.10;99.90;;;;;;5106922;28;20114;-67
2023/05/19 00:12:45;;;;;;;;;;;11.10;99.90;;;;;;5094779;28;19920;-67
2023/05/19 00:15:14;;;;;;;;;;;11.10;99.90;;;;;;5102708;28;19926;-67
2023/05/19 00:17:41;;;;;;;;;;;11.10;99.90;;;;;;5106120;28;19951;-67
2023/05/19 00:20:08;;;;;;;;;;;11.10;99.90;;;;;;5106691;28;19920;-66
2023/05/19 00:22:35;;;;;;;;;;;11.00;99.90;;;;;;5105761;28;19926;-68
2023/05/19 00:25:02;;;;;;;;;;;11.00;99.90;;;;;;5106469;28;19947;-66
2023/05/19 00:27:29;;;;;;;;;;;11.00;99.90;;;;;;5106370;28;19920;-66
2023/05/19 00:29:56;;;;;;;;;;;11.00;99.90;;;;;;5106377;28;19981;-67
2023/05/19 00:32:24;;;;;;;;;;;10.90;99.90;;;;;;5106385;28;19987;-68
2023/05/19 00:34:50;;;;;;;;;;;10.90;99.90;;;;;;5106453;28;19927;-67
2023/05/19 00:37:17;;;;;;;;;;;10.90;99.90;;;;;;5106149;28;19961;-67
2023/05/19 00:39:44;;;;;;;;;;;10.90;99.90;;;;;;5095351;28;20180;-67
2023/05/19 00:42:10;;;;;;;;;;;10.90;99.90;;;;;;5086106;28;19920;-67
2023/05/19 00:44:39;;;;;;;;;;;10.90;99.90;;;;;;5085476;28;19987;-68
2023/05/19 00:47:06;;;;;;;;;;;10.80;99.90;;;;;;5084912;28;19920;-67
2023/05/19 00:49:34;;;;;;;;;;;10.80;99.90;;;;;;5086032;28;19921;-67
2023/05/19 00:52:01;;;;;;;;;;;10.80;99.90;;;;;;5085848;28;19921;-67
2023/05/19 00:54:28;;;;;;;;;;;10.80;99.90;;;;;;5085735;28;19983;-67
2023/05/19 00:56:55;;;;;;;;;;;10.80;99.90;;;;;;5085121;28;19983;-67
2023/05/19 00:59:22;;;;;;;;;;;10.80;99.90;;;;;;5085860;28;20146;-68
2023/05/19 01:01:49;;;;;;;;;;;10.80;99.90;;;;;;5085414;28;19987;-67
2023/05/19 01:04:16;;;;;;;;;;;10.70;99.90;;;;;;5085652;28;20115;-67
2023/05/19 01:06:44;;;;;;;;;;;10.80;99.90;;;;;;5084571;28;19920;-67
2023/05/19 01:09:11;;;;;;;;;;;10.80;99.90;;;;;;5085698;28;19958;-68
2023/05/19 01:11:37;;;;;;;;;;;10.80;99.90;;;;;;5085141;28;20056;-66
2023/05/19 01:14:04;;;;;;;;;;;10.70;99.90;;;;;;5085321;28;19991;-68
2023/05/19 01:16:34;;;;;;;;;;;10.70;99.90;;;;;;5084577;28;19920;-67
2023/05/19 01:19:02;;;;;;;;;;;10.60;99.90;;;;;;5089185;28;19991;-68
2023/05/19 01:22:02;;;;;;;;;;;10.70;99.90;;;;;;5103173;28;19942;-68
2023/05/19 01:25:02;;;;;;;;;;;10.70;99.90;;;;;;5105492;28;19951;-68
2023/05/19 01:27:58;;;;;;;;;;;10.70;99.90;;;;;;5042798;28;19921;-67
2023/05/19 01:30:30;;;;;;;;;;;10.70;99.90;;;;;;5043014;28;19993;-67
2023/05/19 01:32:58;;;;;;;;;;;10.70;99.90;;;;;;5084495;28;19995;-67
2023/05/19 01:35:25;;;;;;;;;;;10.70;99.90;;;;;;5105190;28;20247;-68
2023/05/19 01:37:54;;;;;;;;;;;10.70;99.90;;;;;;5105008;28;19958;-68
2023/05/19 01:40:21;;;;;;;;;;;10.70;99.90;;;;;;5105140;28;19928;-67
2023/05/19 01:42:49;;;;;;;;;;;10.70;99.90;;;;;;5105089;28;19920;-66
2023/05/19 01:45:15;;;;;;;;;;;10.70;99.90;;;;;;5104907;28;19927;-67
2023/05/19 01:47:47;;;;;;;;;;;10.70;99.90;;;;;;5102003;28;19928;-67
2023/05/19 01:50:14;;;;;;;;;;;10.70;99.90;;;;;;5090572;28;19954;-68
2023/05/19 01:52:40;;;;;;;;;;;10.70;99.90;;;;;;5084723;28;19968;-68
2023/05/19 01:55:08;;;;;;;;;;;10.70;99.90;;;;;;5084279;28;19920;-68
2023/05/19 01:57:41;;;;;;;;;;;10.70;99.90;;;;;;5080153;28;19997;-66
2023/05/19 02:00:11;;;;;;;;;;;10.70;99.90;;;;;;5084564;28;19920;-67
2023/05/19 02:02:43;;;;;;;;;;;10.60;99.90;;;;;;5084461;28;19921;-67
2023/05/19 02:05:14;;;;;;;;;;;10.70;99.90;;;;;;5084399;28;19920;-66
2023/05/19 02:07:44;;;;;;;;;;;10.70;99.90;;;;;;5083789;28;19921;-68
2023/05/19 02:10:11;;;;;;;;;;;10.70;99.90;;;;;;5084730;28;19921;-68
2023/05/19 02:12:39;;;;;;;;;;;10.70;99.90;;;;;;5083928;28;20241;-67
2023/05/19 02:15:09;;;;;;;;;;;10.70;99.90;;;;;;5084143;28;19920;-67
2023/05/19 02:17:40;;;;;;;;;;;10.70;99.90;;;;;;5083576;28;20201;-67
2023/05/19 02:20:07;;;;;;;;;;;10.60;99.90;;;;;;5083978;28;20356;-67
2023/05/19 02:22:36;;;;;;;;;;;10.60;99.90;;;;;;5081253;28;19920;-67
2023/05/19 02:25:02;;;;;;;;;;;10.60;99.90;;;;;;5084039;28;19920;-68
2023/05/19 02:27:29;;;;;;;;;;;10.60;99.90;;;;;;5083527;28;19920;-67
2023/05/19 02:29:56;;;;;;;;;;;10.60;99.90;;;;;;5083665;28;19966;-67
2023/05/19 02:32:22;;;;;;;;;;;10.60;99.90;;;;;;5083908;28;19921;-66
2023/05/19 02:34:49;;;;;;;;;;;10.60;99.90;;;;;;5083982;28;20387;-66
2023/05/19 02:37:16;;;;;;;;;;;10.50;99.90;;;;;;5083173;28;19958;-67
2023/05/19 02:39:44;;;;;;;;;;;10.50;99.90;;;;;;5083830;28;19995;-66
2023/05/19 02:42:11;;;;;;;;;;;10.40;99.90;;;;;;5083755;28;19927;-68
2023/05/19 02:44:37;;;;;;;;;;;10.40;99.90;;;;;;5083774;28;19954;-68
2023/05/19 02:47:04;;;;;;;;;;;10.30;99.90;;;;;;5083119;28;19927;-67
2023/05/19 02:49:34;;;;;;;;;;;10.30;99.90;;;;;;5083901;28;19988;-66
2023/05/19 02:52:01;;;;;;;;;;;10.30;99.90;;;;;;5083842;28;19928;-68
2023/05/19 02:54:28;;;;;;;;;;;10.30;99.90;;;;;;5083671;28;19932;-67
2023/05/19 02:56:56;;;;;;;;;;;10.20;99.90;;;;;;5083214;28;19927;-67
2023/05/19 02:59:23;;;;;;;;;;;10.20;99.90;;;;;;5085504;28;20267;-67
2023/05/19 03:01:50;;;;;;;;;;;10.20;99.90;;;;;;5104000;28;19955;-66
2023/05/19 03:04:18;;;;;;;;;;;10.20;99.90;;;;;;5103778;28;19920;-67
2023/05/19 03:06:45;;;;;;;;;;;10.10;99.90;;;;;;5102533;28;19920;-67
2023/05/19 03:09:12;;;;;;;;;;;10.10;99.90;;;;;;5103600;28;19955;-67
2023/05/19 03:11:39;;;;;;;;;;;10.00;99.90;;;;;;5103495;28;19920;-68
2023/05/19 03:14:08;;;;;;;;;;;10.00;99.90;;;;;;5103584;28;19994;-67
2023/05/19 03:16:34;;;;;;;;;;;10.10;99.90;;;;;;5102968;28;19958;-68
2023/05/19 03:19:01;;;;;;;;;;;10.10;99.90;;;;;;5103412;28;19952;-67
2023/05/19 03:21:28;;;;;;;;;;;10.00;99.90;;;;;;5084961;28;19920;-68
2023/05/19 03:23:54;;;;;;;;;;;10.00;99.90;;;;;;5080864;28;19920;-68
2023/05/19 03:26:21;;;;;;;;;;;10.00;99.90;;;;;;5082501;28;19920;-70
2023/05/19 03:28:48;;;;;;;;;;;9.90;99.90;;;;;;5083078;28;19927;-68
2023/05/19 03:31:16;;;;;;;;;;;9.90;99.90;;;;;;5083366;28;19952;-68
2023/05/19 03:33:43;;;;;;;;;;;9.90;99.90;;;;;;5083010;28;19960;-68
2023/05/19 03:36:11;;;;;;;;;;;9.90;99.90;;;;;;5082663;28;19987;-66
2023/05/19 03:38:38;;;;;;;;;;;9.90;99.90;;;;;;5082852;28;19920;-68
2023/05/19 03:41:04;;;;;;;;;;;9.90;99.90;;;;;;5083133;28;19931;-67
2023/05/19 03:43:31;;;;;;;;;;;9.90;99.90;;;;;;5083115;28;19928;-68
2023/05/19 03:45:58;;;;;;;;;;;9.80;99.90;;;;;;5082523;28;20229;-68
2023/05/19 03:48:26;;;;;;;;;;;9.90;99.90;;;;;;5082649;28;19983;-67
2023/05/19 03:50:53;;;;;;;;;;;9.90;99.90;;;;;;5082800;28;20262;-67
2023/05/19 03:53:19;;;;;;;;;;;9.80;99.90;;;;;;5083023;28;19952;-67
2023/05/19 03:55:47;;;;;;;;;;;9.80;99.90;;;;;;5082642;28;19959;-67
2023/05/19 03:58:14;;;;;;;;;;;9.90;99.90;;;;;;5082792;28;19947;-68
2023/05/19 04:00:41;;;;;;;;;;;9.90;99.90;;;;;;5082665;28;19920;-68
2023/05/19 04:03:08;;;;;;;;;;;9.80;99.90;;;;;;5082765;28;19987;-67
2023/05/19 04:05:36;;;;;;;;;;;9.90;99.90;;;;;;5082751;28;19992;-67
2023/05/19 04:08:02;;;;;;;;;;;9.90;99.90;;;;;;5082576;28;19920;-67
2023/05/19 04:10:29;;;;;;;;;;;9.90;99.90;;;;;;5082545;28;19927;-68
2023/05/19 04:12:55;;;;;;;;;;;9.90;99.90;;;;;;5082888;28;20007;-67
2023/05/19 04:15:22;;;;;;;;;;;10.00;99.90;;;;;;5082734;28;20098;-68
2023/05/19 04:17:49;;;;;;;;;;;9.90;99.90;;;;;;5082591;28;20172;-68
2023/05/19 04:20:15;;;;;;;;;;;10.00;99.90;;;;;;5084543;28;19987;-66
2023/05/19 04:22:43;;;;;;;;;;;10.00;99.90;;;;;;5086531;28;19952;-68
2023/05/19 04:25:10;;;;;;;;;;;10.00;99.90;;;;;;5086110;28;19987;-68
2023/05/19 04:27:37;;;;;;;;;;;10.00;99.90;;;;;;5085605;28;19951;-67
2023/05/19 04:30:04;;;;;;;;;;;10.00;99.90;;;;;;5086354;28;19927;-66
2023/05/19 04:32:31;;;;;;;;;;;10.00;99.90;;;;;;5118322;22;20294;-74
2023/05/19 04:34:58;;;;;;;;;;;10.00;99.90;;;;;;5113186;28;19942;-74
2023/05/19 04:37:25;;;;;;;;;;;10.00;99.90;;;;;;5107452;28;20187;-74
2023/05/19 04:40:02;;;;;;;;;;;10.10;99.90;;;;;;5107022;28;19942;-72
2023/05/19 04:42:31;;;;;;;;;;;10.10;99.90;;;;;;5106331;28;19927;-74
2023/05/19 04:45:02;;;;;;;;;;;10.10;99.90;;;;;;5101203;28;20264;-74
2023/05/19 04:47:29;;;;;;;;;;;10.10;99.90;;;;;;5105872;28;19926;-74
2023/05/19 04:49:55;;;;;;;;;;;10.10;99.90;;;;;;5106818;28;20149;-73
2023/05/19 04:52:22;;;;;;;;;;;10.20;99.90;;;;;;5106324;28;19956;-74
2023/05/19 04:54:49;;;;;;;;;;;10.20;99.90;;;;;;5106657;28;19927;-74
2023/05/19 04:57:17;;;;;;;;;;;10.20;99.90;;;;;;5105951;28;19920;-74
2023/05/19 04:59:44;;;;;;;;;;;10.30;99.90;;;;;;5106447;28;19924;-73
2023/05/19 05:02:10;;;;;;;;;;;10.30;99.90;;;;;;5106365;28;19983;-73
2023/05/19 05:04:41;;;;;;;;;;;10.40;99.90;;;;;;5106205;28;19983;-73
2023/05/19 05:07:07;;;;;;;;;;;10.40;99.90;;;;;;5105431;28;20338;-73
2023/05/19 05:09:34;;;;;;;;;;;10.50;99.90;;;;;;5105969;28;19920;-74
2023/05/19 05:12:01;;;;;;;;;;;10.50;99.90;;;;;;5105909;28;19969;-72
2023/05/19 05:14:29;;;;;;;;;;;10.50;99.90;;;;;;5105978;28;19990;-73
2023/05/19 05:16:56;;;;;;;;;;;10.50;99.90;;;;;;5105178;28;19920;-73
2023/05/19 05:19:23;;;;;;;;;;;10.50;99.90;;;;;;5105660;28;19927;-72
2023/05/19 05:21:50;;;;;;;;;;;10.50;99.90;;;;;;5105667;28;20278;-72
2023/05/19 05:24:17;;;;;;;;;;;10.60;99.90;;;;;;5106149;28;19920;-72
2023/05/19 05:26:44;;;;;;;;;;;10.60;99.90;;;;;;5105083;28;19920;-73
2023/05/19 05:29:11;;;;;;;;;;;10.60;99.90;;;;;;5105853;28;19920;-73
2023/05/19 05:31:55;;;;;;;;;;;10.70;99.90;;;;;;5105526;28;19923;-71
2023/05/19 05:34:29;;;;;;;;;;;10.70;99.90;;;;;;5105933;28;19978;-72
2023/05/19 05:36:56;;;;;;;;;;;10.80;99.90;;;;;;5105022;28;19920;-72
2023/05/19 05:39:22;;;;;;;;;;;10.90;99.90;;;;;;5105519;28;19966;-72
2023/05/19 05:41:56;;;;;;;;;;;10.90;99.90;;;;;;5104854;28;19983;-72
2023/05/19 05:44:23;;;;;;;;;;;11.10;99.90;;;;;;5105750;28;19924;-73
2023/05/19 05:46:51;;;;;;;;;;;11.00;99.90;;;;;;5104721;28;19956;-74
2023/05/19 05:49:18;;;;;;;;;;;11.10;99.90;;;;;;5105201;28;19987;-73
2023/05/19 05:51:45;;;;;;;;;;;11.10;99.90;;;;;;5105500;28;19927;-72
2023/05/19 05:54:12;;;;;;;;;;;11.10;99.90;;;;;;5105403;28;20119;-73
2023/05/19 05:56:39;;;;;;;;;;;11.20;99.90;;;;;;5104695;28;19920;-73
2023/05/19 05:59:06;;;;;;;;;;;11.20;99.90;;;;;;5105295;28;19920;-73
2023/05/19 06:01:34;;;;;;;;;;;11.20;99.90;;;;;;5105156;28;19920;-72
2023/05/19 06:04:02;;;;;;;;;;;11.30;99.90;;;;;;5105192;28;19920;-72
2023/05/19 06:06:28;;;;;;;;;;;11.30;99.90;;;;;;5104178;28;19920;-73
2023/05/19 06:08:55;;;;;;;;;;;11.30;99.90;;;;;;5105184;28;20119;-73
2023/05/19 06:11:22;;;;;;;;;;;11.30;99.90;;;;;;5105017;28;19983;-73
2023/05/19 06:13:48;;;;;;;;;;;11.30;99.90;;;;;;5105388;28;19970;-73
2023/05/19 06:16:15;;;;;;;;;;;11.40;99.90;;;;;;5104688;28;20183;-73
2023/05/19 06:18:41;;;;;;;;;;;11.50;99.90;;;;;;5104635;28;19951;-73
2023/05/19 06:21:12;;;;;;;;;;;11.50;99.90;;;;;;5104693;28;19988;-73
2023/05/19 06:23:39;;;;;;;;;;;11.60;99.90;;;;;;5104622;28;19927;-73
2023/05/19 06:26:05;;;;;;;;;;;11.60;99.90;;;;;;5105248;28;19920;-73
2023/05/19 06:28:32;;;;;;;;;;;11.70;99.90;;;;;;5106114;28;19920;-73
2023/05/19 06:30:59;;;;;;;;;;;11.90;99.90;;;;;;5106140;28;19987;-74
2023/05/19 06:33:26;;;;;;;;;;;11.90;99.90;;;;;;5106987;28;19965;-73
2023/05/19 06:35:52;;;;;;;;;;;11.90;99.90;;;;;;5104727;28;19952;-73
2023/05/19 06:38:20;;;;;;;;;;;11.90;99.90;;;;;;5104176;28;20162;-73
2023/05/19 06:43:43;;;;;;;;;;;12.00;99.90;;;;;;5104103;28;19979;-73
2023/05/19 06:46:26;;;;;;;;;;;12.00;99.90;;;;;;5103011;28;19983;-74
2023/05/19 06:48:53;;;;;;;;;;;12.10;99.90;;;;;;5104112;28;19983;-73
2023/05/19 06:51:21;;;;;;;;;;;12.10;99.90;;;;;;5104647;28;19920;-73
2023/05/19 06:53:49;;;;;;;;;;;12.20;99.90;;;;;;5104385;28;19920;-73
2023/05/19 06:56:17;;;;;;;;;;;12.30;99.90;;;;;;5105091;28;19979;-73
2023/05/19 06:58:44;;;;;;;;;;;13.00;99.90;;;;;;5104824;28;19920;-73
2023/05/19 07:01:11;;;;;;;;;;;12.40;99.90;;;;;;5105113;28;20219;-74
2023/05/19 07:03:37;;;;;;;;;;;12.50;99.90;;;;;;5103906;28;19927;-73
2023/05/19 07:06:04;;;;;;;;;;;12.60;99.90;;;;;;5103423;28;19926;-73
2023/05/19 07:08:30;;;;;;;;;;;12.60;99.90;;;;;;5104001;28;19987;-73
2023/05/19 07:10:58;;;;;;;;;;;12.70;99.90;;;;;;5103629;28;19983;-73
2023/05/19 07:13:25;;;;;;;;;;;12.80;99.90;;;;;;5103993;28;19927;-73
2023/05/19 07:15:54;;;;;;;;;;;12.80;99.90;;;;;;5104436;28;19920;-73
2023/05/19 07:18:21;;;;;;;;;;;12.80;99.90;;;;;;5102382;28;19927;-74
2023/05/19 07:20:47;;;;;;;;;;;12.80;99.90;;;;;;5103230;28;19984;-74
2023/05/19 07:23:14;;;;;;;;;;;12.80;99.90;;;;;;5103916;28;19920;-73
2023/05/19 07:25:41;;;;;;;;;;;12.90;99.90;;;;;;5103805;28;20045;-74
2023/05/19 07:28:09;;;;;;;;;;;13.00;99.90;;;;;;5103602;28;19920;-73
2023/05/19 07:30:35;;;;;;;;;;;13.10;99.90;;;;;;5104666;28;20432;-73
2023/05/19 07:33:02;;;;;;;;;;;13.10;99.90;;;;;;5103458;28;19962;-73
2023/05/19 07:35:29;;;;;;;;;;;13.10;99.90;;;;;;5104124;28;19982;-73
2023/05/19 07:37:56;;;;;;;;;;;13.20;99.90;;;;;;5103853;28;19924;-73
2023/05/19 07:40:28;;;;;;;;;;;13.20;99.90;;;;;;5101389;28;19926;-72
2023/05/19 07:42:58;;;;;;;;;;;13.20;99.90;;;;;;5104834;28;19991;-74
2023/05/19 07:45:26;;;;;;;;;;;13.20;99.90;;;;;;5107069;28;19920;-74
2023/05/19 07:47:53;;;;;;;;;;;13.30;99.90;;;;;;5123516;28;19926;-74
2023/05/19 07:50:20;;;;;;;;;;;13.30;99.90;;;;;;5103534;28;19920;-73
2023/05/19 07:52:47;;;;;;;;;;;13.40;99.90;;;;;;5103712;28;19961;-73
2023/05/19 07:55:13;;;;;;;;;;;13.50;99.90;;;;;;5105187;28;19926;-73
2023/05/19 07:57:40;;;;;;;;;;;13.60;99.90;;;;;;5106858;28;19923;-73
2023/05/19 08:00:08;;;;;;;;;;;13.60;99.90;;;;;;5107053;28;19927;-73
2023/05/19 08:02:43;;;;;;;;;;;13.70;99.90;;;;;;5098000;28;19935;-73
2023/05/19 08:05:12;;;;;;;;;;;13.70;99.90;;;;;;5103824;28;19927;-74
2023/05/19 08:07:39;;;;;;;;;;;13.70;99.90;;;;;;5090482;28;19957;-74
2023/05/19 08:10:06;;;;;;;;;;;13.70;99.90;;;;;;5107096;28;19952;-74
2023/05/19 08:12:33;;;;;;;;;;;13.60;99.90;;;;;;5106674;28;19920;-74
2023/05/19 08:15:00;;;;;;;;;;;13.60;99.90;;;;;;5107133;28;19998;-74
2023/05/19 08:17:27;;;;;;;;;;;13.60;99.90;;;;;;5106439;28;19983;-74
2023/05/19 08:19:55;;;;;;;;;;;13.60;99.90;;;;;;5106892;28;19983;-73
2023/05/19 08:22:21;;;;;;;;;;;13.50;99.90;;;;;;5105772;28;19920;-73
2023/05/19 08:24:48;;;;;;;;;;;13.50;99.90;;;;;;5106504;28;19984;-73
2023/05/19 08:27:15;;;;;;;;;;;13.50;99.90;;;;;;5105847;28;20132;-73
2023/05/19 08:29:41;;;;;;;;;;;13.50;99.90;;;;;;5106413;28;19920;-71
2023/05/19 08:32:08;;;;;;;;;;;13.60;99.90;;;;;;5105774;28;19926;-69
2023/05/19 08:34:35;;;;;;;;;;;13.70;99.90;;;;;;5102167;27;19983;-73
2023/05/19 08:37:03;;;;;;;;;;;13.80;99.90;;;;;;5105177;28;20283;-73
2023/05/19 08:39:31;;;;;;;;;;;13.80;99.90;;;;;;5106255;28;19979;-73
2023/05/19 08:41:58;;;;;;;;;;;13.90;99.90;;;;;;5101585;28;20260;-72
2023/05/19 08:44:25;;;;;;;;;;;13.90;99.90;;;;;;5095192;28;19984;-73
2023/05/19 08:46:54;;;;;;;;;;;14.00;99.90;;;;;;5095689;28;19920;-73
2023/05/19 08:49:23;;;;;;;;;;;14.00;99.90;;;;;;5098670;28;19920;-74
2023/05/19 08:51:52;;;;;;;;;;;13.90;99.90;;;;;;5085478;28;19925;-74
2023/05/19 08:54:24;;;;;;;;;;;14.10;99.90;;;;;;5101398;28;19921;-74
2023/05/19 08:56:51;;;;;;;;;;;14.10;99.90;;;;;;5087492;28;19932;-73
2023/05/19 08:59:19;;;;;;;;;;;14.10;99.90;;;;;;5093085;28;19927;-73
2023/05/19 09:01:45;;;;;;;;;;;14.10;99.90;;;;;;5097246;28;19955;-74
2023/05/19 09:04:12;;;;;;;;;;;14.10;99.90;;;;;;5105729;28;19920;-74
2023/05/19 09:06:41;;;;;;;;;;;14.00;99.90;;;;;;5104788;28;19987;-73
2023/05/19 09:09:08;;;;;;;;;;;14.00;99.90;;;;;;5105742;28;20096;-73
2023/05/19 09:11:36;;;;;;;;;;;14.00;99.90;;;;;;5105663;28;19920;-74
2023/05/19 09:14:03;;;;;;;;;;;14.00;99.90;;;;;;5105673;28;19962;-73
2023/05/19 09:16:31;;;;;;;;;;;14.00;99.90;;;;;;5105348;28;20158;-74
2023/05/19 09:18:59;;;;;;;;;;;14.00;99.90;;;;;;5105665;28;19962;-73
2023/05/19 09:21:30;;;;;;;;;;;14.10;99.90;;;;;;5105119;28;20009;-73
2023/05/19 09:23:56;;;;;;;;;;;14.20;99.90;;;;;;5105596;28;19965;-73
2023/05/19 09:26:23;;;;;;;;;;;14.10;99.90;;;;;;5104655;28;19955;-73
2023/05/19 09:28:51;;;;;;;;;;;14.10;99.90;;;;;;5105233;28;19926;-73
2023/05/19 09:31:18;;;;;;;;;;;14.00;99.90;;;;;;5105050;28;20142;-72
2023/05/19 09:33:44;;;;;;;;;;;14.00;99.90;;;;;;5105241;28;19983;-73
2023/05/19 09:36:11;;;;;;;;;;;14.00;99.90;;;;;;5104710;28;19987;-74
2023/05/19 09:38:38;;;;;;;;;;;14.00;99.90;;;;;;5105038;28;19920;-72
2023/05/19 09:41:05;;;;;;;;;;;14.10;99.90;;;;;;5104937;28;20107;-74
2023/05/19 09:43:33;;;;;;;;;;;14.10;99.90;;;;;;5104712;28;19920;-73
2023/05/19 09:46:03;;;;;;;;;;;14.20;99.90;;;;;;5104838;28;19920;-74
2023/05/19 09:48:31;;;;;;;;;;;14.20;99.90;;;;;;5102132;28;19920;-74
2023/05/19 09:50:57;;;;;;;;;;;14.20;99.90;;;;;;5104706;28;19920;-73
2023/05/19 09:53:25;;;;;;;;;;;14.20;99.90;;;;;;5105041;28;19979;-72
2023/05/19 09:55:58;;;;;;;;;;;14.30;99.90;;;;;;5102442;28;19963;-74
2023/05/19 09:58:25;;;;;;;;;;;14.30;99.90;;;;;;5104672;28;19983;-74
2023/05/19 10:00:53;;;;;;;;;;;14.30;99.90;;;;;;5104691;28;19920;-74
2023/05/19 10:03:22;;;;;;;;;;;14.30;99.90;;;;;;5104593;28;19927;-74
2023/05/19 10:05:52;;;;;;;;;;;14.40;99.90;;;;;;5102946;28;19920;-74
2023/05/19 10:08:18;;;;;;;;;;;14.40;99.90;;;;;;5104541;28;19920;-74
2023/05/19 10:10:45;;;;;;;;;;;14.50;99.90;;;;;;5104780;28;20119;-75
2023/05/19 10:13:12;;;;;;;;;;;14.50;99.90;;;;;;5099020;28;19994;-74
2023/05/19 10:15:40;;;;;;;;;;;14.50;99.90;;;;;;5104460;28;19920;-74
2023/05/19 10:18:14;;;;;;;;;;;14.50;99.90;;;;;;5100257;28;19963;-74
2023/05/19 10:20:42;;;;;;;;;;;14.50;99.90;;;;;;5094953;28;19948;-74
2023/05/19 10:23:09;;;;;;;;;;;14.60;99.90;;;;;;5103070;28;20100;-75
2023/05/19 10:25:36;;;;;;;;;;;14.50;99.90;;;;;;5099558;28;19988;-74
2023/05/19 10:28:06;;;;;;;;;;;14.60;99.90;;;;;;5096894;28;19935;-74
2023/05/19 10:30:35;;;;;;;;;;;14.50;99.90;;;;;;5104267;28;19924;-74
2023/05/19 10:33:03;;;;;;;;;;;14.50;99.90;;;;;;5093227;28;19928;-74
2023/05/19 10:35:38;;;;;;;;;;;14.50;99.90;;;;;;5101351;28;20199;-74
2023/05/19 10:38:10;;;;;;;;;;;14.50;99.90;;;;;;5084163;28;19921;-74
2023/05/19 10:40:43;;;;;;;;;;;14.50;99.90;;;;;;5090632;28;19927;-73
2023/05/19 10:43:20;;;;;;;;;;;14.50;99.90;;;;;;5104233;28;19920;-74
2023/05/19 10:45:52;;;;;;;;;;;14.50;99.90;;;;;;5104616;28;19987;-73
2023/05/19 10:48:23;;;;;;;;;;;14.50;99.90;;;;;;5095459;28;19952;-73
2023/05/19 10:50:53;;;;;;;;;;;14.50;99.90;;;;;;5083935;28;19921;-72
2023/05/19 10:53:21;;;;;;;;;;;14.50;99.90;;;;;;5083533;28;19926;-73
2023/05/19 10:55:52;;;;;;;;;;;14.50;99.90;;;;;;5083583;28;19936;-73
2023/05/19 10:58:37;;;;;;;;;;;14.50;99.90;;;;;;5089359;28;20207;-73
2023/05/19 11:01:07;;;;;;;;;;;14.50;99.90;;;;;;5103727;28;19920;-73
2023/05/19 11:03:43;;;;;;;;;;;14.50;99.90;;;;;;5104108;28;19986;-74
2023/05/19 11:06:24;;;;;;;;;;;14.50;99.90;;;;;;5103392;28;19920;-73
2023/05/19 11:08:57;;;;;;;;;;;14.60;99.90;;;;;;5096940;28;19984;-76
2023/05/19 11:11:24;;;;;;;;;;;14.60;99.90;;;;;;5083809;28;19920;-74
2023/05/19 11:13:53;;;;;;;;;;;14.70;99.90;;;;;;5091082;28;19920;-73
2023/05/19 11:16:26;;;;;;;;;;;14.70;99.90;;;;;;5102762;28;19942;-73
2023/05/19 11:18:53;;;;;;;;;;;14.70;99.90;;;;;;5102463;28;19927;-71
2023/05/19 11:21:20;;;;;;;;;;;14.70;99.90;;;;;;5102581;28;20124;-72
2023/05/19 11:23:47;;;;;;;;;;;14.70;99.90;;;;;;5103210;28;19993;-73
2023/05/19 11:26:14;;;;;;;;;;;14.70;99.90;;;;;;5102853;28;20115;-73
2023/05/19 11:28:41;;;;;;;;;;;14.70;99.90;;;;;;5094848;28;19983;-72
2023/05/19 11:31:09;;;;;;;;;;;14.70;99.90;;;;;;5100442;28;19920;-73
2023/05/19 11:33:35;;;;;;;;;;;14.80;99.90;;;;;;5103146;28;20150;-72
2023/05/19 11:36:02;;;;;;;;;;;14.90;99.90;;;;;;5106818;28;20118;-73
2023/05/19 11:38:32;;;;;;;;;;;14.90;99.90;;;;;;5106023;28;19920;-73
2023/05/19 11:40:58;;;;;;;;;;;15.00;99.90;;;;;;5101974;28;19927;-73
2023/05/19 11:43:27;;;;;;;;;;;15.10;99.90;;;;;;5103445;28;19920;-72
2023/05/19 11:45:54;;;;;;;;;;;15.20;99.90;;;;;;5106962;28;19920;-73
2023/05/19 11:48:24;;;;;;;;;;;15.40;99.90;;;;;;5104333;28;19920;-73
2023/05/19 11:50:51;;;;;;;;;;;15.60;99.90;;;;;;5106679;28;20212;-73
2023/05/19 11:53:18;;;;;;;;;;;15.80;99.90;;;;;;5107296;28;19991;-73
2023/05/19 11:55:45;;;;;;;;;;;15.90;99.90;;;;;;5106954;28;19919;-73
2023/05/19 11:58:12;;;;;;;;;;;16.00;99.90;;;;;;5101113;28;19920;-73
2023/05/19 12:00:40;;;;;;;;;;;16.10;99.90;;;;;;5103899;28;19991;-74
2023/05/19 12:03:07;;;;;;;;;;;16.20;99.90;;;;;;5089555;28;20008;-73
2023/05/19 12:05:36;;;;;;;;;;;16.30;99.90;;;;;;5088839;28;20002;-73
2023/05/19 12:08:02;;;;;;;;;;;16.30;99.90;;;;;;5106228;28;19987;-74
2023/05/19 12:10:32;;;;;;;;;;;16.40;99.90;;;;;;5098450;28;20106;-74
2023/05/19 12:12:59;;;;;;;;;;;16.50;99.90;;;;;;5098552;28;19920;-73
2023/05/19 12:15:26;;;;;;;;;;;16.60;99.90;;;;;;5098284;28;20115;-73
2023/05/19 12:17:58;;;;;;;;;;;16.70;99.90;;;;;;5092598;28;19920;-71
2023/05/19 12:20:25;;;;;;;;;;;16.80;99.90;;;;;;5086416;28;19978;-73
2023/05/19 12:22:51;;;;;;;;;;;16.80;99.90;;;;;;5086407;28;19927;-74
2023/05/19 12:25:18;;;;;;;;;;;16.80;99.90;;;;;;5086443;28;19920;-74
2023/05/19 12:27:47;;;;;;;;;;;16.90;99.90;;;;;;5085546;28;20202;-74
2023/05/19 12:30:14;;;;;;;;;;;17.10;99.90;;;;;;5097025;28;19920;-73
2023/05/19 12:32:40;;;;;;;;;;;17.20;99.90;;;;;;5103518;28;19920;-73
2023/05/19 12:35:09;;;;;;;;;;;17.30;99.90;;;;;;5105552;28;19920;-70
2023/05/19 12:37:36;;;;;;;;;;;17.40;99.90;;;;;;5090758;28;19920;-71
2023/05/19 12:40:03;;;;;;;;;;;17.50;99.90;;;;;;5084487;28;19927;-71
2023/05/19 12:42:30;;;;;;;;;;;17.50;99.90;;;;;;5085652;28;19921;-70
2023/05/19 12:44:57;;;;;;;;;;;17.70;99.90;;;;;;5085176;28;19958;-71
2023/05/19 12:47:29;;;;;;;;;;;18.10;99.90;;;;;;5085518;28;19927;-70
2023/05/19 12:49:56;;;;;;;;;;;18.10;99.90;;;;;;5085704;28;20168;-70
2023/05/19 12:52:25;;;;;;;;;;;18.10;99.90;;;;;;5086151;28;19948;-70
2023/05/19 12:54:57;;;;;;;;;;;17.90;99.90;;;;;;5105730;28;19926;-70
2023/05/19 12:57:25;;;;;;;;;;;17.90;99.90;;;;;;5101489;28;19991;-69
2023/05/19 12:59:51;;;;;;;;;;;17.90;99.90;;;;;;5103719;28;20271;-70
2023/05/19 13:02:19;;;;;;;;;;;17.70;99.90;;;;;;5095802;28;19955;-70
2023/05/19 13:04:48;;;;;;;;;;;17.60;99.90;;;;;;5093434;28;19988;-70
2023/05/19 13:07:15;;;;;;;;;;;17.60;99.90;;;;;;5104501;28;19928;-70
2023/05/19 13:09:43;;;;;;;;;;;17.70;99.90;;;;;;5104031;28;19920;-72
2023/05/19 13:12:10;;;;;;;;;;;17.80;99.90;;;;;;5100679;28;19951;-72
2023/05/19 13:14:39;;;;;;;;;;;18.00;99.90;;;;;;5102818;28;19987;-72
2023/05/19 13:17:06;;;;;;;;;;;18.30;99.90;;;;;;5105128;28;19920;-73
2023/05/19 13:19:32;;;;;;;;;;;18.70;99.90;;;;;;5104834;28;19943;-72
2023/05/19 13:21:59;;;;;;;;;;;19.00;99.90;;;;;;5104937;28;20148;-71
2023/05/19 13:24:25;;;;;;;;;;;19.10;99.90;;;;;;5103743;28;19956;-72
2023/05/19 13:26:53;;;;;;;;;;;19.30;99.90;;;;;;5101645;28;19965;-72
2023/05/19 13:29:20;;;;;;;;;;;19.40;99.90;;;;;;5105308;28;19926;-72
2023/05/19 13:31:47;;;;;;;;;;;19.50;99.90;;;;;;5104800;28;19959;-72
2023/05/19 13:34:18;;;;;;;;;;;19.60;99.90;;;;;;5102431;28;19983;-72
2023/05/19 13:36:47;;;;;;;;;;;19.60;99.90;;;;;;5103366;28;19924;-73
2023/05/19 13:39:14;;;;;;;;;;;19.30;99.90;;;;;;5104460;28;19983;-72
2023/05/19 13:41:41;;;;;;;;;;;19.20;99.90;;;;;;5104163;28;20261;-72
2023/05/19 13:44:10;;;;;;;;;;;19.20;99.90;;;;;;5098790;28;19967;-71
2023/05/19 13:46:37;;;;;;;;;;;19.10;99.90;;;;;;5103850;28;19920;-72
2023/05/19 13:49:03;;;;;;;;;;;19.00;99.90;;;;;;5104998;28;19943;-72
2023/05/19 13:51:30;;;;;;;;;;;19.00;99.90;;;;;;5104041;28;19983;-72
2023/05/19 13:54:01;;;;;;;;;;;18.80;99.90;;;;;;5102014;28;19959;-72
2023/05/19 13:56:28;;;;;;;;;;;18.90;99.90;;;;;;5103886;28;19920;-72
2023/05/19 13:58:55;;;;;;;;;;;19.00;99.90;;;;;;5104470;28;19955;-72
2023/05/19 14:01:23;;;;;;;;;;;19.20;99.90;;;;;;5101316;28;20172;-72
2023/05/19 14:03:50;;;;;;;;;;;19.40;99.90;;;;;;5104632;28;19987;-71
2023/05/19 14:06:19;;;;;;;;;;;19.70;99.90;;;;;;5101924;28;20017;-71
2023/05/19 14:08:45;;;;;;;;;;;19.90;99.90;;;;;;5104571;28;20239;-71
2023/05/19 14:11:17;;;;;;;;;;;19.80;99.90;;;;;;5102719;28;20171;-72
2023/05/19 14:13:43;;;;;;;;;;;19.60;99.90;;;;;;5104449;28;19951;-72
2023/05/19 14:16:10;;;;;;;;;;;19.40;99.90;;;;;;5103994;28;20015;-71
2023/05/19 14:18:38;;;;;;;;;;;19.30;99.90;;;;;;5104692;28;19920;-71
2023/05/19 14:21:05;;;;;;;;;;;19.20;99.90;;;;;;5104342;28;19926;-70
2023/05/19 14:23:32;;;;;;;;;;;19.20;99.90;;;;;;5104852;28;19920;-71
2023/05/19 14:25:58;;;;;;;;;;;19.30;99.90;;;;;;5105905;28;19952;-72